logo
Search for airport 
image banner adimage banner adimage banner ad
image banner ad

MMRGZ - Rincon De Los Garza

Located in Melchor Muzquiz, Mexico

ICAO - , IATA -

Data provided by Airmate  

General information

Coordinates: N28°47'39" W102°7'36"
Elevation is 4648 feet MSL.
Magnetic variation is 5° East
View others Airports in Coahuila

Operational data

Special qualification required
Current time UTC:
Current local time:
Weather at : - ( 0 km )
METAR: YCFS 180710Z AUTO 14006KT 100V160 9999 VCTS -SHRA SCT031 BKN065 BKN088 15/14 Q1013 RETS RESHRA VCTS-N/VCTS-NE/VCTS-E
View NOTAMs / SUP AIP / TFR affecting this airport [VIEW]
Communications frequencies: [VIEW]

Runways:

RWY identifierQFULength (ft)Width (ft)SurfaceLDA (ft)
31312°464555DIRT
13132°464555DIRT

Airport contact information

Address: Melchor Muzquiz Mexico

Satellite view of MMRGZ